sensor_id;sensor_type;location;lat;lon;timestamp;P1;durP1;ratioP1;P2;durP2;ratioP2
33987;SDS011;37428;53.580;-1.666;2022-11-06T00:02:47;34.30;;;15.65;;
33987;SDS011;37428;53.580;-1.666;2022-11-06T00:05:51;24.60;;;12.60;;
33987;SDS011;37428;53.580;-1.666;2022-11-06T00:09:17;29.95;;;11.85;;
33987;SDS011;37428;53.580;-1.666;2022-11-06T00:12:35;26.00;;;12.50;;
33987;SDS011;37428;53.580;-1.666;2022-11-06T00:15:40;27.42;;;11.98;;
33987;SDS011;37428;53.580;-1.666;2022-11-06T00:18:42;34.58;;;10.57;;
33987;SDS011;37428;53.580;-1.666;2022-11-06T00:21:49;28.48;;;9.32;;
33987;SDS011;37428;53.580;-1.666;2022-11-06T00:25:20;31.52;;;10.15;;
33987;SDS011;37428;53.580;-1.666;2022-11-06T00:28:23;25.58;;;7.90;;
33987;SDS011;37428;53.580;-1.666;2022-11-06T00:31:33;22.25;;;8.48;;
33987;SDS011;37428;53.580;-1.666;2022-11-06T00:34:52;27.48;;;8.30;;
33987;SDS011;37428;53.580;-1.666;2022-11-06T00:37:56;22.00;;;8.18;;
33987;SDS011;37428;53.580;-1.666;2022-11-06T00:41:19;20.35;;;8.82;;
33987;SDS011;37428;53.580;-1.666;2022-11-06T00:44:23;22.23;;;6.63;;
33987;SDS011;37428;53.580;-1.666;2022-11-06T00:47:39;23.70;;;8.35;;
33987;SDS011;37428;53.580;-1.666;2022-11-06T00:50:43;20.13;;;6.32;;
33987;SDS011;37428;53.580;-1.666;2022-11-06T00:53:51;22.77;;;5.68;;
33987;SDS011;37428;53.580;-1.666;2022-11-06T00:56:57;28.10;;;6.63;;
33987;SDS011;37428;53.580;-1.666;2022-11-06T01:00:01;16.00;;;5.60;;
33987;SDS011;37428;53.580;-1.666;2022-11-06T01:03:04;20.55;;;7.30;;
33987;SDS011;37428;53.580;-1.666;2022-11-06T01:06:11;21.38;;;6.30;;
33987;SDS011;37428;53.580;-1.666;2022-11-06T01:09:20;21.98;;;5.70;;
33987;SDS011;37428;53.580;-1.666;2022-11-06T01:12:36;22.17;;;6.40;;
33987;SDS011;37428;53.580;-1.666;2022-11-06T01:15:40;17.92;;;6.38;;
33987;SDS011;37428;53.580;-1.666;2022-11-06T01:18:44;23.08;;;5.55;;
33987;SDS011;37428;53.580;-1.666;2022-11-06T01:24:54;13.77;;;5.68;;
33987;SDS011;37428;53.580;-1.666;2022-11-06T01:27:56;16.67;;;5.82;;
33987;SDS011;37428;53.580;-1.666;2022-11-06T01:31:01;15.68;;;4.88;;
33987;SDS011;37428;53.580;-1.666;2022-11-06T01:34:05;22.88;;;4.80;;
33987;SDS011;37428;53.580;-1.666;2022-11-06T01:37:22;30.08;;;5.03;;
33987;SDS011;37428;53.580;-1.666;2022-11-06T01:40:40;29.35;;;7.30;;
33987;SDS011;37428;53.580;-1.666;2022-11-06T01:43:44;16.30;;;6.05;;
33987;SDS011;37428;53.580;-1.666;2022-11-06T01:46:48;21.50;;;5.80;;
33987;SDS011;37428;53.580;-1.666;2022-11-06T01:49:52;26.83;;;6.00;;
33987;SDS011;37428;53.580;-1.666;2022-11-06T01:53:00;17.83;;;5.20;;
33987;SDS011;37428;53.580;-1.666;2022-11-06T01:56:10;21.17;;;5.25;;
33987;SDS011;37428;53.580;-1.666;2022-11-06T01:59:16;22.65;;;4.90;;
33987;SDS011;37428;53.580;-1.666;2022-11-06T02:02:21;22.08;;;4.50;;
33987;SDS011;37428;53.580;-1.666;2022-11-06T02:05:24;30.52;;;5.53;;
33987;SDS011;37428;53.580;-1.666;2022-11-06T02:08:38;13.57;;;3.75;;
33987;SDS011;37428;53.580;-1.666;2022-11-06T02:11:58;25.70;;;6.03;;
33987;SDS011;37428;53.580;-1.666;2022-11-06T02:18:49;27.25;;;7.20;;
33987;SDS011;37428;53.580;-1.666;2022-11-06T02:22:04;26.83;;;4.47;;
33987;SDS011;37428;53.580;-1.666;2022-11-06T02:25:20;23.13;;;4.80;;
33987;SDS011;37428;53.580;-1.666;2022-11-06T02:28:37;21.02;;;4.60;;
33987;SDS011;37428;53.580;-1.666;2022-11-06T02:31:51;19.90;;;4.22;;
33987;SDS011;37428;53.580;-1.666;2022-11-06T02:34:55;15.13;;;3.92;;
33987;SDS011;37428;53.580;-1.666;2022-11-06T02:38:03;19.50;;;4.32;;
33987;SDS011;37428;53.580;-1.666;2022-11-06T02:41:23;23.15;;;4.80;;
33987;SDS011;37428;53.580;-1.666;2022-11-06T02:44:35;22.00;;;3.67;;
33987;SDS011;37428;53.580;-1.666;2022-11-06T02:47:38;22.73;;;4.82;;
33987;SDS011;37428;53.580;-1.666;2022-11-06T02:50:47;17.40;;;4.03;;
33987;SDS011;37428;53.580;-1.666;2022-11-06T02:53:55;20.42;;;4.97;;
33987;SDS011;37428;53.580;-1.666;2022-11-06T02:57:10;23.65;;;3.92;;
33987;SDS011;37428;53.580;-1.666;2022-11-06T03:00:34;23.08;;;3.83;;
33987;SDS011;37428;53.580;-1.666;2022-11-06T03:03:45;29.60;;;5.07;;
33987;SDS011;37428;53.580;-1.666;2022-11-06T03:06:55;20.02;;;4.82;;
33987;SDS011;37428;53.580;-1.666;2022-11-06T03:10:09;22.52;;;4.40;;
33987;SDS011;37428;53.580;-1.666;2022-11-06T03:13:17;21.13;;;3.70;;
33987;SDS011;37428;53.580;-1.666;2022-11-06T03:16:48;22.38;;;4.40;;
33987;SDS011;37428;53.580;-1.666;2022-11-06T03:20:01;19.05;;;3.53;;
33987;SDS011;37428;53.580;-1.666;2022-11-06T03:23:15;19.27;;;3.20;;
33987;SDS011;37428;53.580;-1.666;2022-11-06T03:26:28;23.98;;;3.20;;
33987;SDS011;37428;53.580;-1.666;2022-11-06T03:29:51;17.33;;;3.88;;
33987;SDS011;37428;53.580;-1.666;2022-11-06T03:33:09;16.25;;;2.63;;
33987;SDS011;37428;53.580;-1.666;2022-11-06T03:36:20;22.77;;;2.85;;
33987;SDS011;37428;53.580;-1.666;2022-11-06T03:39:49;23.25;;;3.83;;
33987;SDS011;37428;53.580;-1.666;2022-11-06T03:43:27;12.63;;;3.05;;
33987;SDS011;37428;53.580;-1.666;2022-11-06T03:46:41;17.73;;;3.15;;
33987;SDS011;37428;53.580;-1.666;2022-11-06T03:49:52;17.80;;;3.78;;
33987;SDS011;37428;53.580;-1.666;2022-11-06T03:53:36;17.30;;;3.67;;
33987;SDS011;37428;53.580;-1.666;2022-11-06T03:56:42;26.33;;;4.38;;
33987;SDS011;37428;53.580;-1.666;2022-11-06T04:00:10;26.23;;;5.00;;
33987;SDS011;37428;53.580;-1.666;2022-11-06T04:03:23;37.45;;;6.20;;
33987;SDS011;37428;53.580;-1.666;2022-11-06T04:06:35;25.05;;;5.18;;
33987;SDS011;37428;53.580;-1.666;2022-11-06T04:09:48;24.92;;;4.20;;
33987;SDS011;37428;53.580;-1.666;2022-11-06T04:13:11;29.90;;;5.13;;
33987;SDS011;37428;53.580;-1.666;2022-11-06T04:16:33;26.42;;;5.97;;
33987;SDS011;37428;53.580;-1.666;2022-11-06T04:19:44;30.52;;;6.28;;
33987;SDS011;37428;53.580;-1.666;2022-11-06T04:23:04;19.13;;;4.20;;
33987;SDS011;37428;53.580;-1.666;2022-11-06T04:26:14;22.20;;;3.92;;
33987;SDS011;37428;53.580;-1.666;2022-11-06T04:33:06;21.50;;;3.90;;
33987;SDS011;37428;53.580;-1.666;2022-11-06T04:36:16;22.45;;;4.15;;
33987;SDS011;37428;53.580;-1.666;2022-11-06T04:39:30;17.05;;;3.97;;
33987;SDS011;37428;53.580;-1.666;2022-11-06T04:42:48;18.25;;;4.20;;
33987;SDS011;37428;53.580;-1.666;2022-11-06T04:45:55;28.02;;;4.40;;
33987;SDS011;37428;53.580;-1.666;2022-11-06T04:49:00;31.92;;;5.40;;
33987;SDS011;37428;53.580;-1.666;2022-11-06T04:52:22;31.33;;;7.38;;
33987;SDS011;37428;53.580;-1.666;2022-11-06T04:55:39;21.27;;;5.60;;
33987;SDS011;37428;53.580;-1.666;2022-11-06T04:59:04;20.80;;;5.63;;
33987;SDS011;37428;53.580;-1.666;2022-11-06T05:02:10;15.73;;;5.32;;
33987;SDS011;37428;53.580;-1.666;2022-11-06T05:06:00;17.67;;;4.93;;
33987;SDS011;37428;53.580;-1.666;2022-11-06T05:08:56;21.83;;;6.45;;
33987;SDS011;37428;53.580;-1.666;2022-11-06T05:12:17;25.73;;;7.78;;
33987;SDS011;37428;53.580;-1.666;2022-11-06T05:15:26;17.70;;;6.65;;
33987;SDS011;37428;53.580;-1.666;2022-11-06T05:18:29;22.52;;;6.97;;
33987;SDS011;37428;53.580;-1.666;2022-11-06T05:21:43;28.60;;;7.95;;
33987;SDS011;37428;53.580;-1.666;2022-11-06T05:25:17;24.38;;;7.70;;
33987;SDS011;37428;53.580;-1.666;2022-11-06T05:28:42;25.63;;;8.75;;
33987;SDS011;37428;53.580;-1.666;2022-11-06T05:32:12;24.88;;;8.30;;
33987;SDS011;37428;53.580;-1.666;2022-11-06T05:35:15;24.05;;;8.90;;
33987;SDS011;37428;53.580;-1.666;2022-11-06T05:38:24;25.50;;;8.38;;
33987;SDS011;37428;53.580;-1.666;2022-11-06T05:41:28;21.58;;;8.77;;
33987;SDS011;37428;53.580;-1.666;2022-11-06T05:44:41;21.50;;;8.43;;
33987;SDS011;37428;53.580;-1.666;2022-11-06T05:47:58;25.52;;;8.57;;
33987;SDS011;37428;53.580;-1.666;2022-11-06T05:51:04;26.00;;;8.82;;
33987;SDS011;37428;53.580;-1.666;2022-11-06T05:54:25;24.98;;;8.00;;
33987;SDS011;37428;53.580;-1.666;2022-11-06T05:57:34;21.92;;;7.97;;
33987;SDS011;37428;53.580;-1.666;2022-11-06T06:04:11;22.98;;;8.18;;
33987;SDS011;37428;53.580;-1.666;2022-11-06T06:07:42;17.88;;;6.43;;
33987;SDS011;37428;53.580;-1.666;2022-11-06T06:10:45;27.30;;;7.32;;
33987;SDS011;37428;53.580;-1.666;2022-11-06T06:13:55;26.00;;;10.63;;
33987;SDS011;37428;53.580;-1.666;2022-11-06T06:16:58;26.73;;;10.95;;
33987;SDS011;37428;53.580;-1.666;2022-11-06T06:20:04;32.97;;;10.18;;
33987;SDS011;37428;53.580;-1.666;2022-11-06T06:23:08;28.77;;;10.15;;
33987;SDS011;37428;53.580;-1.666;2022-11-06T06:26:11;23.30;;;11.05;;
33987;SDS011;37428;53.580;-1.666;2022-11-06T06:29:19;34.45;;;11.65;;
33987;SDS011;37428;53.580;-1.666;2022-11-06T06:32:21;26.38;;;11.70;;
33987;SDS011;37428;53.580;-1.666;2022-11-06T06:35:26;31.30;;;12.82;;
33987;SDS011;37428;53.580;-1.666;2022-11-06T06:38:49;24.75;;;11.15;;
33987;SDS011;37428;53.580;-1.666;2022-11-06T06:41:52;35.20;;;14.90;;
33987;SDS011;37428;53.580;-1.666;2022-11-06T06:44:56;27.77;;;11.35;;
33987;SDS011;37428;53.580;-1.666;2022-11-06T06:48:10;37.65;;;17.98;;
33987;SDS011;37428;53.580;-1.666;2022-11-06T06:51:13;27.65;;;11.48;;
33987;SDS011;37428;53.580;-1.666;2022-11-06T06:54:17;26.10;;;12.10;;
33987;SDS011;37428;53.580;-1.666;2022-11-06T06:57:20;26.85;;;12.80;;
33987;SDS011;37428;53.580;-1.666;2022-11-06T07:00:22;26.48;;;13.10;;
33987;SDS011;37428;53.580;-1.666;2022-11-06T07:06:39;28.80;;;11.38;;
33987;SDS011;37428;53.580;-1.666;2022-11-06T07:09:41;35.45;;;13.30;;
33987;SDS011;37428;53.580;-1.666;2022-11-06T07:12:45;26.60;;;12.02;;
33987;SDS011;37428;53.580;-1.666;2022-11-06T07:15:48;29.55;;;13.75;;
33987;SDS011;37428;53.580;-1.666;2022-11-06T07:18:50;30.73;;;13.30;;
33987;SDS011;37428;53.580;-1.666;2022-11-06T07:22:07;26.98;;;12.60;;
33987;SDS011;37428;53.580;-1.666;2022-11-06T07:25:27;28.73;;;12.18;;
33987;SDS011;37428;53.580;-1.666;2022-11-06T07:28:31;27.60;;;12.13;;
33987;SDS011;37428;53.580;-1.666;2022-11-06T07:31:47;36.88;;;13.70;;
33987;SDS011;37428;53.580;-1.666;2022-11-06T07:34:50;30.75;;;15.88;;
33987;SDS011;37428;53.580;-1.666;2022-11-06T07:38:01;27.98;;;14.05;;
33987;SDS011;37428;53.580;-1.666;2022-11-06T07:44:16;34.63;;;16.50;;
33987;SDS011;37428;53.580;-1.666;2022-11-06T07:47:18;25.88;;;12.98;;
33987;SDS011;37428;53.580;-1.666;2022-11-06T07:50:25;32.20;;;15.45;;
33987;SDS011;37428;53.580;-1.666;2022-11-06T07:53:29;27.63;;;14.93;;
33987;SDS011;37428;53.580;-1.666;2022-11-06T07:56:31;38.33;;;16.40;;
33987;SDS011;37428;53.580;-1.666;2022-11-06T07:59:33;31.25;;;16.23;;
33987;SDS011;37428;53.580;-1.666;2022-11-06T08:03:02;32.03;;;15.95;;
33987;SDS011;37428;53.580;-1.666;2022-11-06T08:06:10;27.85;;;13.60;;
33987;SDS011;37428;53.580;-1.666;2022-11-06T08:09:35;28.33;;;14.25;;
33987;SDS011;37428;53.580;-1.666;2022-11-06T08:12:51;32.25;;;14.05;;
33987;SDS011;37428;53.580;-1.666;2022-11-06T08:15:53;35.30;;;14.73;;
33987;SDS011;37428;53.580;-1.666;2022-11-06T08:18:55;30.92;;;12.55;;
33987;SDS011;37428;53.580;-1.666;2022-11-06T08:21:57;30.90;;;13.43;;
33987;SDS011;37428;53.580;-1.666;2022-11-06T08:25:09;35.10;;;19.20;;
33987;SDS011;37428;53.580;-1.666;2022-11-06T08:28:28;26.50;;;14.03;;
33987;SDS011;37428;53.580;-1.666;2022-11-06T08:31:30;37.08;;;16.58;;
33987;SDS011;37428;53.580;-1.666;2022-11-06T08:34:33;26.88;;;14.65;;
33987;SDS011;37428;53.580;-1.666;2022-11-06T08:37:45;28.60;;;14.23;;
33987;SDS011;37428;53.580;-1.666;2022-11-06T08:41:09;25.38;;;12.25;;
33987;SDS011;37428;53.580;-1.666;2022-11-06T08:44:16;27.02;;;12.40;;
33987;SDS011;37428;53.580;-1.666;2022-11-06T08:47:20;26.70;;;11.25;;
33987;SDS011;37428;53.580;-1.666;2022-11-06T08:50:37;21.98;;;10.43;;
33987;SDS011;37428;53.580;-1.666;2022-11-06T08:54:06;34.33;;;18.17;;
33987;SDS011;37428;53.580;-1.666;2022-11-06T08:57:21;33.53;;;16.70;;
33987;SDS011;37428;53.580;-1.666;2022-11-06T09:00:34;24.45;;;14.75;;
33987;SDS011;37428;53.580;-1.666;2022-11-06T09:07:40;19.27;;;10.50;;
33987;SDS011;37428;53.580;-1.666;2022-11-06T09:11:03;24.67;;;9.95;;
33987;SDS011;37428;53.580;-1.666;2022-11-06T09:14:11;25.13;;;10.57;;
33987;SDS011;37428;53.580;-1.666;2022-11-06T09:17:16;21.08;;;9.63;;
33987;SDS011;37428;53.580;-1.666;2022-11-06T09:20:54;20.90;;;9.90;;
33987;SDS011;37428;53.580;-1.666;2022-11-06T09:27:28;17.08;;;7.80;;
33987;SDS011;37428;53.580;-1.666;2022-11-06T09:30:37;15.57;;;7.50;;
33987;SDS011;37428;53.580;-1.666;2022-11-06T09:33:56;21.27;;;8.10;;
33987;SDS011;37428;53.580;-1.666;2022-11-06T09:37:07;12.70;;;7.07;;
33987;SDS011;37428;53.580;-1.666;2022-11-06T09:40:45;12.43;;;6.80;;
33987;SDS011;37428;53.580;-1.666;2022-11-06T09:44:02;13.90;;;6.20;;
33987;SDS011;37428;53.580;-1.666;2022-11-06T09:47:14;13.95;;;6.75;;
33987;SDS011;37428;53.580;-1.666;2022-11-06T09:50:32;15.00;;;7.20;;
33987;SDS011;37428;53.580;-1.666;2022-11-06T09:53:42;14.02;;;6.63;;
33987;SDS011;37428;53.580;-1.666;2022-11-06T09:56:56;16.50;;;7.30;;
33987;SDS011;37428;53.580;-1.666;2022-11-06T10:00:05;13.68;;;6.63;;
33987;SDS011;37428;53.580;-1.666;2022-11-06T10:03:15;13.38;;;5.78;;
33987;SDS011;37428;53.580;-1.666;2022-11-06T10:06:24;13.00;;;5.88;;
33987;SDS011;37428;53.580;-1.666;2022-11-06T10:09:29;13.20;;;6.20;;
33987;SDS011;37428;53.580;-1.666;2022-11-06T10:12:37;17.23;;;6.05;;
33987;SDS011;37428;53.580;-1.666;2022-11-06T10:15:51;11.32;;;4.90;;
33987;SDS011;37428;53.580;-1.666;2022-11-06T10:19:13;12.15;;;6.20;;
33987;SDS011;37428;53.580;-1.666;2022-11-06T10:22:30;13.00;;;6.40;;
33987;SDS011;37428;53.580;-1.666;2022-11-06T10:25:42;14.48;;;6.85;;
33987;SDS011;37428;53.580;-1.666;2022-11-06T10:29:10;16.63;;;6.95;;
33987;SDS011;37428;53.580;-1.666;2022-11-06T10:32:31;23.50;;;9.10;;
33987;SDS011;37428;53.580;-1.666;2022-11-06T10:36:13;12.38;;;7.45;;
33987;SDS011;37428;53.580;-1.666;2022-11-06T10:39:44;20.52;;;9.43;;
33987;SDS011;37428;53.580;-1.666;2022-11-06T10:43:12;17.63;;;9.07;;
33987;SDS011;37428;53.580;-1.666;2022-11-06T10:46:26;21.25;;;11.60;;
33987;SDS011;37428;53.580;-1.666;2022-11-06T10:49:37;27.85;;;11.73;;
33987;SDS011;37428;53.580;-1.666;2022-11-06T10:52:48;24.70;;;11.27;;
33987;SDS011;37428;53.580;-1.666;2022-11-06T10:56:00;22.40;;;8.52;;
33987;SDS011;37428;53.580;-1.666;2022-11-06T10:59:38;24.15;;;10.68;;
33987;SDS011;37428;53.580;-1.666;2022-11-06T11:02:56;21.70;;;7.07;;
33987;SDS011;37428;53.580;-1.666;2022-11-06T11:06:02;19.73;;;6.93;;
33987;SDS011;37428;53.580;-1.666;2022-11-06T11:09:28;14.43;;;6.30;;
33987;SDS011;37428;53.580;-1.666;2022-11-06T11:12:43;11.25;;;4.43;;
33987;SDS011;37428;53.580;-1.666;2022-11-06T11:15:56;14.73;;;5.95;;
33987;SDS011;37428;53.580;-1.666;2022-11-06T11:19:21;14.55;;;5.80;;
33987;SDS011;37428;53.580;-1.666;2022-11-06T11:22:25;9.93;;;5.07;;
33987;SDS011;37428;53.580;-1.666;2022-11-06T11:25:41;12.20;;;4.55;;
33987;SDS011;37428;53.580;-1.666;2022-11-06T11:28:50;9.85;;;3.70;;
33987;SDS011;37428;53.580;-1.666;2022-11-06T11:31:57;11.38;;;4.38;;
33987;SDS011;37428;53.580;-1.666;2022-11-06T11:35:10;12.35;;;3.70;;
33987;SDS011;37428;53.580;-1.666;2022-11-06T11:38:14;13.57;;;4.93;;
33987;SDS011;37428;53.580;-1.666;2022-11-06T11:41:34;11.95;;;3.40;;
33987;SDS011;37428;53.580;-1.666;2022-11-06T11:44:40;10.48;;;3.25;;
33987;SDS011;37428;53.580;-1.666;2022-11-06T11:47:45;14.52;;;3.70;;
33987;SDS011;37428;53.580;-1.666;2022-11-06T11:50:48;12.55;;;3.53;;
33987;SDS011;37428;53.580;-1.666;2022-11-06T11:53:50;8.70;;;3.20;;
33987;SDS011;37428;53.580;-1.666;2022-11-06T11:56:57;10.95;;;4.05;;
33987;SDS011;37428;53.580;-1.666;2022-11-06T12:00:02;14.15;;;3.30;;
33987;SDS011;37428;53.580;-1.666;2022-11-06T12:03:09;7.05;;;2.40;;
33987;SDS011;37428;53.580;-1.666;2022-11-06T12:06:20;11.63;;;4.57;;
33987;SDS011;37428;53.580;-1.666;2022-11-06T12:09:24;11.50;;;3.65;;
33987;SDS011;37428;53.580;-1.666;2022-11-06T12:12:28;9.55;;;4.28;;
33987;SDS011;37428;53.580;-1.666;2022-11-06T12:15:43;11.30;;;3.42;;
33987;SDS011;37428;53.580;-1.666;2022-11-06T12:18:50;8.40;;;3.10;;
33987;SDS011;37428;53.580;-1.666;2022-11-06T12:21:56;10.77;;;2.88;;
33987;SDS011;37428;53.580;-1.666;2022-11-06T12:25:04;10.68;;;4.20;;
33987;SDS011;37428;53.580;-1.666;2022-11-06T12:28:13;9.73;;;3.60;;
33987;SDS011;37428;53.580;-1.666;2022-11-06T12:31:19;11.00;;;3.72;;
33987;SDS011;37428;53.580;-1.666;2022-11-06T12:34:42;10.68;;;4.15;;
33987;SDS011;37428;53.580;-1.666;2022-11-06T12:37:55;17.48;;;3.70;;
33987;SDS011;37428;53.580;-1.666;2022-11-06T12:41:05;9.13;;;3.22;;
33987;SDS011;37428;53.580;-1.666;2022-11-06T12:44:14;8.65;;;3.38;;
33987;SDS011;37428;53.580;-1.666;2022-11-06T12:47:24;9.40;;;3.35;;
33987;SDS011;37428;53.580;-1.666;2022-11-06T12:50:50;11.13;;;3.83;;
33987;SDS011;37428;53.580;-1.666;2022-11-06T12:54:16;9.82;;;3.50;;
33987;SDS011;37428;53.580;-1.666;2022-11-06T12:57:28;8.63;;;4.18;;
33987;SDS011;37428;53.580;-1.666;2022-11-06T13:00:50;9.18;;;4.20;;
33987;SDS011;37428;53.580;-1.666;2022-11-06T13:04:27;10.02;;;4.88;;
33987;SDS011;37428;53.580;-1.666;2022-11-06T13:07:47;14.35;;;6.15;;
33987;SDS011;37428;53.580;-1.666;2022-11-06T13:11:16;10.65;;;5.60;;
33987;SDS011;37428;53.580;-1.666;2022-11-06T13:14:33;14.05;;;7.07;;
33987;SDS011;37428;53.580;-1.666;2022-11-06T13:18:03;16.58;;;7.70;;
33987;SDS011;37428;53.580;-1.666;2022-11-06T13:21:12;13.50;;;7.13;;
33987;SDS011;37428;53.580;-1.666;2022-11-06T13:24:40;15.52;;;7.03;;
33987;SDS011;37428;53.580;-1.666;2022-11-06T13:27:53;15.60;;;6.50;;
33987;SDS011;37428;53.580;-1.666;2022-11-06T13:31:00;11.43;;;6.45;;
33987;SDS011;37428;53.580;-1.666;2022-11-06T13:34:14;10.73;;;6.20;;
33987;SDS011;37428;53.580;-1.666;2022-11-06T13:37:38;10.73;;;6.07;;
33987;SDS011;37428;53.580;-1.666;2022-11-06T13:40:49;12.20;;;5.88;;
33987;SDS011;37428;53.580;-1.666;2022-11-06T13:44:13;13.00;;;5.95;;
33987;SDS011;37428;53.580;-1.666;2022-11-06T13:47:33;9.57;;;6.82;;
33987;SDS011;37428;53.580;-1.666;2022-11-06T13:50:45;12.80;;;5.73;;
33987;SDS011;37428;53.580;-1.666;2022-11-06T13:54:31;9.40;;;5.82;;
33987;SDS011;37428;53.580;-1.666;2022-11-06T14:01:21;8.90;;;3.42;;
33987;SDS011;37428;53.580;-1.666;2022-11-06T14:04:43;8.20;;;3.45;;
33987;SDS011;37428;53.580;-1.666;2022-11-06T14:08:13;6.78;;;3.45;;
33987;SDS011;37428;53.580;-1.666;2022-11-06T14:11:28;4.70;;;2.60;;
33987;SDS011;37428;53.580;-1.666;2022-11-06T14:14:42;7.90;;;3.15;;
33987;SDS011;37428;53.580;-1.666;2022-11-06T14:17:54;7.80;;;2.65;;
33987;SDS011;37428;53.580;-1.666;2022-11-06T14:25:00;6.05;;;2.13;;
33987;SDS011;37428;53.580;-1.666;2022-11-06T14:28:37;7.90;;;4.20;;
33987;SDS011;37428;53.580;-1.666;2022-11-06T14:32:08;5.57;;;2.63;;
33987;SDS011;37428;53.580;-1.666;2022-11-06T14:38:54;4.13;;;2.45;;
33987;SDS011;37428;53.580;-1.666;2022-11-06T14:41:58;8.32;;;2.75;;
33987;SDS011;37428;53.580;-1.666;2022-11-06T14:45:36;5.65;;;2.60;;
33987;SDS011;37428;53.580;-1.666;2022-11-06T14:48:50;4.57;;;2.33;;
33987;SDS011;37428;53.580;-1.666;2022-11-06T14:51:57;4.78;;;2.28;;
33987;SDS011;37428;53.580;-1.666;2022-11-06T14:55:03;6.13;;;2.30;;
33987;SDS011;37428;53.580;-1.666;2022-11-06T14:58:27;4.18;;;1.60;;
33987;SDS011;37428;53.580;-1.666;2022-11-06T15:01:34;2.22;;;1.45;;
33987;SDS011;37428;53.580;-1.666;2022-11-06T15:04:51;6.32;;;2.13;;
33987;SDS011;37428;53.580;-1.666;2022-11-06T15:12:18;3.42;;;2.03;;
33987;SDS011;37428;53.580;-1.666;2022-11-06T15:15:49;4.47;;;1.35;;
33987;SDS011;37428;53.580;-1.666;2022-11-06T15:19:00;6.30;;;1.60;;
33987;SDS011;37428;53.580;-1.666;2022-11-06T15:25:31;2.05;;;1.58;;
33987;SDS011;37428;53.580;-1.666;2022-11-06T15:28:42;1.55;;;0.85;;
33987;SDS011;37428;53.580;-1.666;2022-11-06T15:31:56;3.22;;;1.35;;
33987;SDS011;37428;53.580;-1.666;2022-11-06T15:35:07;1.48;;;0.82;;
33987;SDS011;37428;53.580;-1.666;2022-11-06T15:38:44;3.28;;;1.00;;
33987;SDS011;37428;53.580;-1.666;2022-11-06T15:41:50;2.35;;;0.90;;
33987;SDS011;37428;53.580;-1.666;2022-11-06T15:45:21;4.47;;;1.25;;
33987;SDS011;37428;53.580;-1.666;2022-11-06T15:48:37;9.38;;;6.88;;
33987;SDS011;37428;53.580;-1.666;2022-11-06T15:52:31;6.85;;;4.65;;
33987;SDS011;37428;53.580;-1.666;2022-11-06T15:55:30;2.40;;;1.23;;
33987;SDS011;37428;53.580;-1.666;2022-11-06T15:59:14;1.75;;;0.60;;
33987;SDS011;37428;53.580;-1.666;2022-11-06T16:02:23;6.32;;;1.75;;
33987;SDS011;37428;53.580;-1.666;2022-11-06T16:06:03;4.80;;;1.98;;
33987;SDS011;37428;53.580;-1.666;2022-11-06T16:09:40;4.68;;;1.42;;
33987;SDS011;37428;53.580;-1.666;2022-11-06T16:12:46;3.83;;;1.42;;
33987;SDS011;37428;53.580;-1.666;2022-11-06T16:15:53;6.18;;;3.83;;
33987;SDS011;37428;53.580;-1.666;2022-11-06T16:19:02;12.10;;;8.10;;
33987;SDS011;37428;53.580;-1.666;2022-11-06T16:22:20;9.70;;;6.28;;
33987;SDS011;37428;53.580;-1.666;2022-11-06T16:25:43;4.88;;;2.97;;
33987;SDS011;37428;53.580;-1.666;2022-11-06T16:31:58;2.97;;;1.65;;
33987;SDS011;37428;53.580;-1.666;2022-11-06T16:35:25;6.97;;;2.47;;
33987;SDS011;37428;53.580;-1.666;2022-11-06T16:38:42;5.15;;;2.03;;
33987;SDS011;37428;53.580;-1.666;2022-11-06T16:41:58;7.55;;;2.00;;
33987;SDS011;37428;53.580;-1.666;2022-11-06T16:45:21;8.98;;;3.03;;
33987;SDS011;37428;53.580;-1.666;2022-11-06T16:52:14;23.33;;;6.45;;
33987;SDS011;37428;53.580;-1.666;2022-11-06T16:55:34;16.30;;;4.70;;
33987;SDS011;37428;53.580;-1.666;2022-11-06T16:58:59;5.13;;;2.05;;
33987;SDS011;37428;53.580;-1.666;2022-11-06T17:02:19;7.35;;;2.25;;
33987;SDS011;37428;53.580;-1.666;2022-11-06T17:05:38;22.33;;;9.02;;
33987;SDS011;37428;53.580;-1.666;2022-11-06T17:08:59;13.68;;;6.80;;
33987;SDS011;37428;53.580;-1.666;2022-11-06T17:12:22;21.75;;;11.18;;
33987;SDS011;37428;53.580;-1.666;2022-11-06T17:15:27;7.88;;;3.22;;
33987;SDS011;37428;53.580;-1.666;2022-11-06T17:18:43;5.80;;;3.88;;
33987;SDS011;37428;53.580;-1.666;2022-11-06T17:21:53;35.20;;;14.77;;
33987;SDS011;37428;53.580;-1.666;2022-11-06T17:25:20;45.30;;;18.60;;
33987;SDS011;37428;53.580;-1.666;2022-11-06T17:28:25;26.02;;;12.98;;
33987;SDS011;37428;53.580;-1.666;2022-11-06T17:31:30;11.23;;;7.60;;
33987;SDS011;37428;53.580;-1.666;2022-11-06T17:34:36;11.30;;;4.07;;
33987;SDS011;37428;53.580;-1.666;2022-11-06T17:37:40;8.15;;;2.72;;
33987;SDS011;37428;53.580;-1.666;2022-11-06T17:40:44;6.88;;;2.10;;
33987;SDS011;37428;53.580;-1.666;2022-11-06T17:43:53;2.05;;;1.42;;
33987;SDS011;37428;53.580;-1.666;2022-11-06T17:47:19;5.88;;;1.80;;
33987;SDS011;37428;53.580;-1.666;2022-11-06T17:50:22;2.72;;;1.48;;
33987;SDS011;37428;53.580;-1.666;2022-11-06T17:53:28;7.28;;;3.28;;
33987;SDS011;37428;53.580;-1.666;2022-11-06T17:56:34;6.03;;;2.15;;
33987;SDS011;37428;53.580;-1.666;2022-11-06T17:59:48;7.35;;;2.92;;
33987;SDS011;37428;53.580;-1.666;2022-11-06T18:02:55;4.05;;;1.58;;
33987;SDS011;37428;53.580;-1.666;2022-11-06T18:06:03;7.10;;;1.88;;
33987;SDS011;37428;53.580;-1.666;2022-11-06T18:09:13;6.43;;;1.45;;
33987;SDS011;37428;53.580;-1.666;2022-11-06T18:12:17;4.60;;;1.25;;
33987;SDS011;37428;53.580;-1.666;2022-11-06T18:15:24;7.88;;;2.92;;
33987;SDS011;37428;53.580;-1.666;2022-11-06T18:18:28;1.33;;;0.90;;
33987;SDS011;37428;53.580;-1.666;2022-11-06T18:21:43;4.38;;;1.02;;
33987;SDS011;37428;53.580;-1.666;2022-11-06T18:24:45;14.93;;;2.15;;
33987;SDS011;37428;53.580;-1.666;2022-11-06T18:27:49;4.65;;;1.70;;
33987;SDS011;37428;53.580;-1.666;2022-11-06T18:30:53;2.17;;;1.33;;
33987;SDS011;37428;53.580;-1.666;2022-11-06T18:34:02;7.80;;;1.20;;
33987;SDS011;37428;53.580;-1.666;2022-11-06T18:37:09;4.75;;;1.70;;
33987;SDS011;37428;53.580;-1.666;2022-11-06T18:40:11;4.15;;;1.45;;
33987;SDS011;37428;53.580;-1.666;2022-11-06T18:43:28;4.40;;;1.23;;
33987;SDS011;37428;53.580;-1.666;2022-11-06T18:46:31;7.78;;;1.67;;
33987;SDS011;37428;53.580;-1.666;2022-11-06T18:49:47;6.72;;;1.92;;
33987;SDS011;37428;53.580;-1.666;2022-11-06T18:56:15;1.95;;;0.90;;
33987;SDS011;37428;53.580;-1.666;2022-11-06T18:59:51;2.63;;;1.17;;
33987;SDS011;37428;53.580;-1.666;2022-11-06T19:02:55;6.90;;;3.45;;
33987;SDS011;37428;53.580;-1.666;2022-11-06T19:05:59;4.88;;;1.73;;
33987;SDS011;37428;53.580;-1.666;2022-11-06T19:12:39;5.40;;;2.13;;
33987;SDS011;37428;53.580;-1.666;2022-11-06T19:15:43;7.07;;;2.25;;
33987;SDS011;37428;53.580;-1.666;2022-11-06T19:18:45;9.45;;;2.65;;
33987;SDS011;37428;53.580;-1.666;2022-11-06T19:21:49;6.25;;;2.03;;
33987;SDS011;37428;53.580;-1.666;2022-11-06T19:25:06;10.63;;;1.80;;
33987;SDS011;37428;53.580;-1.666;2022-11-06T19:28:26;6.30;;;1.83;;
33987;SDS011;37428;53.580;-1.666;2022-11-06T19:31:36;6.45;;;1.60;;
33987;SDS011;37428;53.580;-1.666;2022-11-06T19:34:45;4.82;;;1.25;;
33987;SDS011;37428;53.580;-1.666;2022-11-06T19:37:47;4.88;;;1.35;;
33987;SDS011;37428;53.580;-1.666;2022-11-06T19:40:53;9.63;;;2.30;;
33987;SDS011;37428;53.580;-1.666;2022-11-06T19:43:58;8.25;;;2.17;;
33987;SDS011;37428;53.580;-1.666;2022-11-06T19:47:04;7.90;;;2.33;;
33987;SDS011;37428;53.580;-1.666;2022-11-06T19:50:11;16.10;;;2.10;;
33987;SDS011;37428;53.580;-1.666;2022-11-06T19:53:26;6.00;;;2.08;;